sensor_id;sensor_type;location;lat;lon;timestamp;temperature;humidity
26336;DHT22;14047;50.936;4.654;2023-02-26T00:01:11;1.50;99.90
26336;DHT22;14047;50.936;4.654;2023-02-26T00:03:37;1.40;99.90
26336;DHT22;14047;50.936;4.654;2023-02-26T00:06:04;1.40;99.90
26336;DHT22;14047;50.936;4.654;2023-02-26T00:08:30;1.40;99.90
26336;DHT22;14047;50.936;4.654;2023-02-26T00:10:56;1.50;99.90
26336;DHT22;14047;50.936;4.654;2023-02-26T00:13:23;1.50;99.90
26336;DHT22;14047;50.936;4.654;2023-02-26T00:15:58;1.50;99.90
26336;DHT22;14047;50.936;4.654;2023-02-26T00:18:24;1.50;99.90
26336;DHT22;14047;50.936;4.654;2023-02-26T00:20:51;1.50;99.90
26336;DHT22;14047;50.936;4.654;2023-02-26T00:23:19;1.50;99.90
26336;DHT22;14047;50.936;4.654;2023-02-26T00:25:46;1.50;99.90
26336;DHT22;14047;50.936;4.654;2023-02-26T00:28:13;1.50;99.90
26336;DHT22;14047;50.936;4.654;2023-02-26T00:30:39;1.50;99.90
26336;DHT22;14047;50.936;4.654;2023-02-26T00:33:06;1.40;99.90
26336;DHT22;14047;50.936;4.654;2023-02-26T00:35:33;1.40;99.90
26336;DHT22;14047;50.936;4.654;2023-02-26T00:38:06;1.30;99.90
26336;DHT22;14047;50.936;4.654;2023-02-26T00:40:46;1.30;99.90
26336;DHT22;14047;50.936;4.654;2023-02-26T00:43:31;1.20;99.90
26336;DHT22;14047;50.936;4.654;2023-02-26T00:46:28;1.10;99.90
26336;DHT22;14047;50.936;4.654;2023-02-26T00:51:41;1.20;99.90
26336;DHT22;14047;50.936;4.654;2023-02-26T00:54:28;1.20;99.90
26336;DHT22;14047;50.936;4.654;2023-02-26T00:56:56;1.20;99.90
26336;DHT22;14047;50.936;4.654;2023-02-26T00:59:24;1.20;99.90
26336;DHT22;14047;50.936;4.654;2023-02-26T01:01:50;1.20;99.90
26336;DHT22;14047;50.936;4.654;2023-02-26T01:04:19;1.20;99.90
26336;DHT22;14047;50.936;4.654;2023-02-26T01:06:52;1.20;99.90
26336;DHT22;14047;50.936;4.654;2023-02-26T01:09:33;1.20;99.90
26336;DHT22;14047;50.936;4.654;2023-02-26T01:12:02;1.10;99.90
26336;DHT22;14047;50.936;4.654;2023-02-26T01:14:30;1.10;99.90
26336;DHT22;14047;50.936;4.654;2023-02-26T01:19:47;0.90;99.90
26336;DHT22;14047;50.936;4.654;2023-02-26T01:25:13;0.90;99.90
26336;DHT22;14047;50.936;4.654;2023-02-26T01:27:41;0.90;99.90
26336;DHT22;14047;50.936;4.654;2023-02-26T01:30:08;0.70;99.90
26336;DHT22;14047;50.936;4.654;2023-02-26T01:37:51;0.70;99.90
26336;DHT22;14047;50.936;4.654;2023-02-26T01:42:51;0.80;99.90
26336;DHT22;14047;50.936;4.654;2023-02-26T01:45:30;0.80;99.90
26336;DHT22;14047;50.936;4.654;2023-02-26T01:48:17;0.60;99.90
26336;DHT22;14047;50.936;4.654;2023-02-26T01:50:46;0.50;99.90
26336;DHT22;14047;50.936;4.654;2023-02-26T01:55:43;0.40;99.90
26336;DHT22;14047;50.936;4.654;2023-02-26T01:58:10;0.30;99.90
26336;DHT22;14047;50.936;4.654;2023-02-26T02:00:37;0.50;99.90
26336;DHT22;14047;50.936;4.654;2023-02-26T02:03:04;0.50;99.90
26336;DHT22;14047;50.936;4.654;2023-02-26T02:05:50;0.60;99.90
26336;DHT22;14047;50.936;4.654;2023-02-26T02:08:18;0.80;99.90
26336;DHT22;14047;50.936;4.654;2023-02-26T02:10:47;0.80;99.90
26336;DHT22;14047;50.936;4.654;2023-02-26T02:18:37;0.70;99.90
26336;DHT22;14047;50.936;4.654;2023-02-26T02:21:17;0.80;99.90
26336;DHT22;14047;50.936;4.654;2023-02-26T02:24:16;0.80;99.90
26336;DHT22;14047;50.936;4.654;2023-02-26T02:26:59;0.80;99.90
26336;DHT22;14047;50.936;4.654;2023-02-26T02:32:59;0.70;99.90
26336;DHT22;14047;50.936;4.654;2023-02-26T02:35:39;0.80;99.90
26336;DHT22;14047;50.936;4.654;2023-02-26T02:38:15;0.90;99.90
26336;DHT22;14047;50.936;4.654;2023-02-26T02:40:46;0.80;99.90
26336;DHT22;14047;50.936;4.654;2023-02-26T02:43:16;0.80;99.90
26336;DHT22;14047;50.936;4.654;2023-02-26T02:46:02;1.00;99.90
26336;DHT22;14047;50.936;4.654;2023-02-26T02:48:40;1.00;99.90
26336;DHT22;14047;50.936;4.654;2023-02-26T02:51:18;0.60;99.90
26336;DHT22;14047;50.936;4.654;2023-02-26T02:54:24;0.50;99.90
26336;DHT22;14047;50.936;4.654;2023-02-26T02:56:46;0.60;99.90
26336;DHT22;14047;50.936;4.654;2023-02-26T03:02:04;0.40;99.90
26336;DHT22;14047;50.936;4.654;2023-02-26T03:04:31;0.40;99.90
26336;DHT22;14047;50.936;4.654;2023-02-26T03:06:57;0.40;99.90
26336;DHT22;14047;50.936;4.654;2023-02-26T03:09:23;0.40;99.90
26336;DHT22;14047;50.936;4.654;2023-02-26T03:11:49;0.50;99.90
26336;DHT22;14047;50.936;4.654;2023-02-26T03:14:15;0.60;99.90
26336;DHT22;14047;50.936;4.654;2023-02-26T03:16:59;0.60;99.90
26336;DHT22;14047;50.936;4.654;2023-02-26T03:19:40;0.70;99.90
26336;DHT22;14047;50.936;4.654;2023-02-26T03:22:11;0.60;99.90
26336;DHT22;14047;50.936;4.654;2023-02-26T03:30:20;0.50;99.90
26336;DHT22;14047;50.936;4.654;2023-02-26T03:32:51;0.60;99.90
26336;DHT22;14047;50.936;4.654;2023-02-26T03:41:33;0.30;99.90
26336;DHT22;14047;50.936;4.654;2023-02-26T03:44:04;0.40;99.90
26336;DHT22;14047;50.936;4.654;2023-02-26T03:46:48;0.30;99.90
26336;DHT22;14047;50.936;4.654;2023-02-26T03:49:24;0.10;99.90
26336;DHT22;14047;50.936;4.654;2023-02-26T03:51:52;0.00;99.90
26336;DHT22;14047;50.936;4.654;2023-02-26T03:54:58;0.00;99.90
26336;DHT22;14047;50.936;4.654;2023-02-26T03:57:49;0.10;99.90
26336;DHT22;14047;50.936;4.654;2023-02-26T04:00:37;0.20;99.90
26336;DHT22;14047;50.936;4.654;2023-02-26T04:03:13;0.20;99.90
26336;DHT22;14047;50.936;4.654;2023-02-26T04:05:46;0.10;99.90
26336;DHT22;14047;50.936;4.654;2023-02-26T04:08:13;0.10;99.90
26336;DHT22;14047;50.936;4.654;2023-02-26T04:10:50;0.00;99.90
26336;DHT22;14047;50.936;4.654;2023-02-26T04:13:17;0.00;99.90
26336;DHT22;14047;50.936;4.654;2023-02-26T04:15:44;0.00;99.90
26336;DHT22;14047;50.936;4.654;2023-02-26T04:18:10;-0.10;99.90
26336;DHT22;14047;50.936;4.654;2023-02-26T04:20:36;-0.10;99.90
26336;DHT22;14047;50.936;4.654;2023-02-26T04:23:02;-0.10;99.90
26336;DHT22;14047;50.936;4.654;2023-02-26T04:25:28;0.10;99.90
26336;DHT22;14047;50.936;4.654;2023-02-26T04:27:56;0.10;99.90
26336;DHT22;14047;50.936;4.654;2023-02-26T04:30:22;0.00;99.90
26336;DHT22;14047;50.936;4.654;2023-02-26T04:32:48;0.10;99.90
26336;DHT22;14047;50.936;4.654;2023-02-26T04:35:14;0.20;99.90
26336;DHT22;14047;50.936;4.654;2023-02-26T04:37:41;0.40;99.90
26336;DHT22;14047;50.936;4.654;2023-02-26T04:40:08;0.40;99.90
26336;DHT22;14047;50.936;4.654;2023-02-26T04:42:34;0.20;99.90
26336;DHT22;14047;50.936;4.654;2023-02-26T04:45:00;0.10;99.90
26336;DHT22;14047;50.936;4.654;2023-02-26T04:47:27;0.10;99.90
26336;DHT22;14047;50.936;4.654;2023-02-26T04:49:53;0.00;99.90
26336;DHT22;14047;50.936;4.654;2023-02-26T04:52:19;0.10;99.90
26336;DHT22;14047;50.936;4.654;2023-02-26T04:54:45;-0.10;99.90
26336;DHT22;14047;50.936;4.654;2023-02-26T04:57:14;0.00;99.90
26336;DHT22;14047;50.936;4.654;2023-02-26T04:59:40;-0.10;99.90
26336;DHT22;14047;50.936;4.654;2023-02-26T05:02:07;-0.20;99.90
26336;DHT22;14047;50.936;4.654;2023-02-26T05:04:37;-0.20;99.90
26336;DHT22;14047;50.936;4.654;2023-02-26T05:07:03;-0.10;99.90
26336;DHT22;14047;50.936;4.654;2023-02-26T05:09:29;-0.20;99.90
26336;DHT22;14047;50.936;4.654;2023-02-26T05:11:55;-0.20;99.90
26336;DHT22;14047;50.936;4.654;2023-02-26T05:14:21;-0.10;99.90
26336;DHT22;14047;50.936;4.654;2023-02-26T05:16:48;-0.10;99.90
26336;DHT22;14047;50.936;4.654;2023-02-26T05:19:14;0.00;99.90
26336;DHT22;14047;50.936;4.654;2023-02-26T05:21:40;-0.10;99.90
26336;DHT22;14047;50.936;4.654;2023-02-26T05:24:06;-0.20;99.90
26336;DHT22;14047;50.936;4.654;2023-02-26T05:26:32;-0.30;99.90
26336;DHT22;14047;50.936;4.654;2023-02-26T05:28:58;-0.30;99.90
26336;DHT22;14047;50.936;4.654;2023-02-26T05:31:24;-0.50;99.90
26336;DHT22;14047;50.936;4.654;2023-02-26T05:33:51;-0.50;99.90
26336;DHT22;14047;50.936;4.654;2023-02-26T05:36:17;-0.30;99.90
26336;DHT22;14047;50.936;4.654;2023-02-26T05:38:43;-0.40;99.90
26336;DHT22;14047;50.936;4.654;2023-02-26T05:41:10;-0.50;99.90
26336;DHT22;14047;50.936;4.654;2023-02-26T05:43:35;-0.60;99.90
26336;DHT22;14047;50.936;4.654;2023-02-26T05:46:02;-0.50;99.90
26336;DHT22;14047;50.936;4.654;2023-02-26T05:48:28;-0.40;99.90
26336;DHT22;14047;50.936;4.654;2023-02-26T05:50:54;-0.50;99.90
26336;DHT22;14047;50.936;4.654;2023-02-26T05:53:20;-0.50;99.90
26336;DHT22;14047;50.936;4.654;2023-02-26T05:55:46;-0.50;99.90
26336;DHT22;14047;50.936;4.654;2023-02-26T05:58:12;-0.40;99.90
26336;DHT22;14047;50.936;4.654;2023-02-26T06:00:38;-0.50;99.90
26336;DHT22;14047;50.936;4.654;2023-02-26T06:03:04;-0.60;99.90
26336;DHT22;14047;50.936;4.654;2023-02-26T06:05:30;-0.60;99.90
26336;DHT22;14047;50.936;4.654;2023-02-26T06:07:57;-0.50;99.90
26336;DHT22;14047;50.936;4.654;2023-02-26T06:10:22;-0.50;99.90
26336;DHT22;14047;50.936;4.654;2023-02-26T06:12:49;-0.50;99.90
26336;DHT22;14047;50.936;4.654;2023-02-26T06:15:15;-0.50;99.90
26336;DHT22;14047;50.936;4.654;2023-02-26T06:17:41;-0.40;99.90
26336;DHT22;14047;50.936;4.654;2023-02-26T06:20:08;-0.50;99.90
26336;DHT22;14047;50.936;4.654;2023-02-26T06:22:34;-0.30;99.90
26336;DHT22;14047;50.936;4.654;2023-02-26T06:25:00;-0.50;99.90
26336;DHT22;14047;50.936;4.654;2023-02-26T06:27:26;-0.50;99.90
26336;DHT22;14047;50.936;4.654;2023-02-26T06:29:52;-0.60;99.90
26336;DHT22;14047;50.936;4.654;2023-02-26T06:32:18;-0.50;99.90
26336;DHT22;14047;50.936;4.654;2023-02-26T06:34:44;-0.40;99.90
26336;DHT22;14047;50.936;4.654;2023-02-26T06:37:10;-0.30;99.90
26336;DHT22;14047;50.936;4.654;2023-02-26T06:39:36;-0.40;99.90
26336;DHT22;14047;50.936;4.654;2023-02-26T06:42:02;-0.50;99.90
26336;DHT22;14047;50.936;4.654;2023-02-26T06:44:29;-0.40;99.90
26336;DHT22;14047;50.936;4.654;2023-02-26T06:46:55;-0.50;99.90
26336;DHT22;14047;50.936;4.654;2023-02-26T06:49:21;-0.60;99.90
26336;DHT22;14047;50.936;4.654;2023-02-26T06:51:47;-0.70;99.90
26336;DHT22;14047;50.936;4.654;2023-02-26T06:54:13;-0.60;99.90
26336;DHT22;14047;50.936;4.654;2023-02-26T06:56:39;-0.50;99.90
26336;DHT22;14047;50.936;4.654;2023-02-26T06:59:05;-0.40;99.90
26336;DHT22;14047;50.936;4.654;2023-02-26T07:01:31;-0.30;99.90
26336;DHT22;14047;50.936;4.654;2023-02-26T07:03:57;-0.20;99.90
26336;DHT22;14047;50.936;4.654;2023-02-26T07:06:23;-0.40;99.90
26336;DHT22;14047;50.936;4.654;2023-02-26T07:08:49;-0.60;99.90
26336;DHT22;14047;50.936;4.654;2023-02-26T07:11:15;-0.60;99.90
26336;DHT22;14047;50.936;4.654;2023-02-26T07:13:41;-0.80;99.90
26336;DHT22;14047;50.936;4.654;2023-02-26T07:16:07;-0.80;99.90
26336;DHT22;14047;50.936;4.654;2023-02-26T07:18:34;-0.70;99.90
26336;DHT22;14047;50.936;4.654;2023-02-26T07:21:01;-0.60;99.90
26336;DHT22;14047;50.936;4.654;2023-02-26T07:23:27;-0.40;99.90
26336;DHT22;14047;50.936;4.654;2023-02-26T07:25:53;-0.30;99.90
26336;DHT22;14047;50.936;4.654;2023-02-26T07:28:19;-0.20;99.90
26336;DHT22;14047;50.936;4.654;2023-02-26T07:30:46;-0.30;99.90
26336;DHT22;14047;50.936;4.654;2023-02-26T07:33:12;-0.20;99.90
26336;DHT22;14047;50.936;4.654;2023-02-26T07:35:38;-0.40;99.90
26336;DHT22;14047;50.936;4.654;2023-02-26T07:38:04;-0.40;99.90
26336;DHT22;14047;50.936;4.654;2023-02-26T07:40:31;-0.20;99.90
26336;DHT22;14047;50.936;4.654;2023-02-26T07:42:58;-0.20;99.90
26336;DHT22;14047;50.936;4.654;2023-02-26T07:45:24;-0.20;99.90
26336;DHT22;14047;50.936;4.654;2023-02-26T07:47:53;-0.20;99.90
26336;DHT22;14047;50.936;4.654;2023-02-26T07:50:20;-0.10;99.90
26336;DHT22;14047;50.936;4.654;2023-02-26T07:52:46;0.00;99.90
26336;DHT22;14047;50.936;4.654;2023-02-26T07:55:12;0.10;99.90
26336;DHT22;14047;50.936;4.654;2023-02-26T07:57:38;0.20;99.90
26336;DHT22;14047;50.936;4.654;2023-02-26T08:00:05;0.20;99.90
26336;DHT22;14047;50.936;4.654;2023-02-26T08:02:38;0.30;99.90
26336;DHT22;14047;50.936;4.654;2023-02-26T08:05:04;0.50;99.90
26336;DHT22;14047;50.936;4.654;2023-02-26T08:07:31;0.40;99.90
26336;DHT22;14047;50.936;4.654;2023-02-26T08:09:56;0.50;99.90
26336;DHT22;14047;50.936;4.654;2023-02-26T08:12:23;0.50;99.90
26336;DHT22;14047;50.936;4.654;2023-02-26T08:14:49;0.50;99.90
26336;DHT22;14047;50.936;4.654;2023-02-26T08:17:14;0.70;99.90
26336;DHT22;14047;50.936;4.654;2023-02-26T08:19:40;0.60;99.90
26336;DHT22;14047;50.936;4.654;2023-02-26T08:22:06;0.70;99.90
26336;DHT22;14047;50.936;4.654;2023-02-26T08:24:32;0.80;99.90
26336;DHT22;14047;50.936;4.654;2023-02-26T08:26:58;0.90;99.90
26336;DHT22;14047;50.936;4.654;2023-02-26T08:29:25;1.10;99.90
26336;DHT22;14047;50.936;4.654;2023-02-26T08:31:51;1.20;99.90
26336;DHT22;14047;50.936;4.654;2023-02-26T08:34:17;1.20;99.90
26336;DHT22;14047;50.936;4.654;2023-02-26T08:36:44;1.20;99.90
26336;DHT22;14047;50.936;4.654;2023-02-26T08:39:09;1.20;99.90
26336;DHT22;14047;50.936;4.654;2023-02-26T08:41:35;1.10;99.90
26336;DHT22;14047;50.936;4.654;2023-02-26T08:44:03;1.20;99.90
26336;DHT22;14047;50.936;4.654;2023-02-26T08:46:29;1.30;99.90
26336;DHT22;14047;50.936;4.654;2023-02-26T08:48:55;1.30;99.90
26336;DHT22;14047;50.936;4.654;2023-02-26T08:51:22;1.40;99.90
26336;DHT22;14047;50.936;4.654;2023-02-26T08:53:48;1.50;99.90
26336;DHT22;14047;50.936;4.654;2023-02-26T08:56:15;1.50;99.90
26336;DHT22;14047;50.936;4.654;2023-02-26T08:58:42;1.70;99.90
26336;DHT22;14047;50.936;4.654;2023-02-26T09:01:08;1.70;99.90
26336;DHT22;14047;50.936;4.654;2023-02-26T09:03:35;1.70;99.90
26336;DHT22;14047;50.936;4.654;2023-02-26T09:06:01;1.80;99.90
26336;DHT22;14047;50.936;4.654;2023-02-26T09:08:30;1.80;99.90
26336;DHT22;14047;50.936;4.654;2023-02-26T09:11:00;1.90;99.90
26336;DHT22;14047;50.936;4.654;2023-02-26T09:13:26;1.90;99.90
26336;DHT22;14047;50.936;4.654;2023-02-26T09:15:52;2.10;99.90
26336;DHT22;14047;50.936;4.654;2023-02-26T09:18:18;2.20;99.90
26336;DHT22;14047;50.936;4.654;2023-02-26T09:20:44;2.20;99.90
26336;DHT22;14047;50.936;4.654;2023-02-26T09:23:10;2.20;99.90
26336;DHT22;14047;50.936;4.654;2023-02-26T09:25:36;2.10;99.90
26336;DHT22;14047;50.936;4.654;2023-02-26T09:28:02;2.10;99.90
26336;DHT22;14047;50.936;4.654;2023-02-26T09:30:29;2.20;99.90
26336;DHT22;14047;50.936;4.654;2023-02-26T09:32:55;2.20;99.90
26336;DHT22;14047;50.936;4.654;2023-02-26T09:35:27;2.30;99.90
26336;DHT22;14047;50.936;4.654;2023-02-26T09:37:53;2.30;99.90
26336;DHT22;14047;50.936;4.654;2023-02-26T09:40:24;2.40;99.90
26336;DHT22;14047;50.936;4.654;2023-02-26T09:45:36;2.40;99.90
26336;DHT22;14047;50.936;4.654;2023-02-26T09:48:05;2.40;99.90
26336;DHT22;14047;50.936;4.654;2023-02-26T09:50:57;2.50;99.90
26336;DHT22;14047;50.936;4.654;2023-02-26T09:53:30;2.60;99.90
26336;DHT22;14047;50.936;4.654;2023-02-26T09:56:16;2.60;99.90
26336;DHT22;14047;50.936;4.654;2023-02-26T09:58:43;2.60;99.90
26336;DHT22;14047;50.936;4.654;2023-02-26T10:04:12;2.60;99.90
26336;DHT22;14047;50.936;4.654;2023-02-26T10:12:16;2.80;99.90
26336;DHT22;14047;50.936;4.654;2023-02-26T10:15:07;2.80;99.90
26336;DHT22;14047;50.936;4.654;2023-02-26T10:21:06;3.10;99.90
26336;DHT22;14047;50.936;4.654;2023-02-26T10:23:55;3.10;99.90
26336;DHT22;14047;50.936;4.654;2023-02-26T10:26:38;3.10;99.90
26336;DHT22;14047;50.936;4.654;2023-02-26T10:29:26;3.10;99.90
26336;DHT22;14047;50.936;4.654;2023-02-26T10:40:04;3.90;99.90
26336;DHT22;14047;50.936;4.654;2023-02-26T10:42:59;3.80;99.90
26336;DHT22;14047;50.936;4.654;2023-02-26T10:50:38;3.10;99.90
26336;DHT22;14047;50.936;4.654;2023-02-26T10:53:10;3.00;99.90
26336;DHT22;14047;50.936;4.654;2023-02-26T10:58:15;3.10;99.90
26336;DHT22;14047;50.936;4.654;2023-02-26T11:00:44;3.20;99.90
26336;DHT22;14047;50.936;4.654;2023-02-26T11:03:23;3.20;99.90
26336;DHT22;14047;50.936;4.654;2023-02-26T11:05:52;3.30;99.90
26336;DHT22;14047;50.936;4.654;2023-02-26T11:08:24;3.40;99.90
26336;DHT22;14047;50.936;4.654;2023-02-26T11:10:57;3.70;99.90
26336;DHT22;14047;50.936;4.654;2023-02-26T11:13:30;3.90;99.90
26336;DHT22;14047;50.936;4.654;2023-02-26T11:16:01;3.60;99.90
26336;DHT22;14047;50.936;4.654;2023-02-26T11:18:34;3.60;99.90
26336;DHT22;14047;50.936;4.654;2023-02-26T11:21:04;3.60;99.90
26336;DHT22;14047;50.936;4.654;2023-02-26T11:23:31;3.80;99.90
26336;DHT22;14047;50.936;4.654;2023-02-26T11:26:02;3.90;99.90
26336;DHT22;14047;50.936;4.654;2023-02-26T11:28:52;3.70;99.90
26336;DHT22;14047;50.936;4.654;2023-02-26T11:31:22;3.80;99.90
26336;DHT22;14047;50.936;4.654;2023-02-26T11:34:09;3.90;99.90
26336;DHT22;14047;50.936;4.654;2023-02-26T11:36:38;3.90;99.90
26336;DHT22;14047;50.936;4.654;2023-02-26T11:39:17;3.80;99.90
26336;DHT22;14047;50.936;4.654;2023-02-26T11:41:45;3.90;99.90
26336;DHT22;14047;50.936;4.654;2023-02-26T11:44:19;4.00;99.90
26336;DHT22;14047;50.936;4.654;2023-02-26T11:46:56;4.00;99.90
26336;DHT22;14047;50.936;4.654;2023-02-26T11:49:26;4.20;99.90
26336;DHT22;14047;50.936;4.654;2023-02-26T11:54:35;4.10;99.90
26336;DHT22;14047;50.936;4.654;2023-02-26T11:57:05;4.20;99.90
26336;DHT22;14047;50.936;4.654;2023-02-26T11:59:33;4.30;99.90
26336;DHT22;14047;50.936;4.654;2023-02-26T12:02:10;4.40;99.90
26336;DHT22;14047;50.936;4.654;2023-02-26T12:04:42;4.60;99.90
26336;DHT22;14047;50.936;4.654;2023-02-26T12:07:14;4.40;99.90
26336;DHT22;14047;50.936;4.654;2023-02-26T12:09:41;4.20;99.90
26336;DHT22;14047;50.936;4.654;2023-02-26T12:18:54;3.80;99.90
26336;DHT22;14047;50.936;4.654;2023-02-26T12:27:01;4.00;99.90
26336;DHT22;14047;50.936;4.654;2023-02-26T12:35:35;4.00;99.90
26336;DHT22;14047;50.936;4.654;2023-02-26T12:41:02;4.30;99.90
26336;DHT22;14047;50.936;4.654;2023-02-26T12:43:48;4.60;99.90
26336;DHT22;14047;50.936;4.654;2023-02-26T12:46:31;4.40;99.90
26336;DHT22;14047;50.936;4.654;2023-02-26T12:54:20;4.40;99.90
26336;DHT22;14047;50.936;4.654;2023-02-26T12:57:15;4.40;99.90
26336;DHT22;14047;50.936;4.654;2023-02-26T13:02:36;4.30;99.90
26336;DHT22;14047;50.936;4.654;2023-02-26T13:10:35;4.50;99.90
26336;DHT22;14047;50.936;4.654;2023-02-26T13:15:54;4.80;99.90
26336;DHT22;14047;50.936;4.654;2023-02-26T13:18:52;4.90;99.90
26336;DHT22;14047;50.936;4.654;2023-02-26T13:21:28;5.10;99.90
26336;DHT22;14047;50.936;4.654;2023-02-26T13:23:56;4.80;99.90
26336;DHT22;14047;50.936;4.654;2023-02-26T13:26:26;4.70;99.90
26336;DHT22;14047;50.936;4.654;2023-02-26T13:28:57;4.70;99.90
26336;DHT22;14047;50.936;4.654;2023-02-26T13:31:41;4.80;99.90
26336;DHT22;14047;50.936;4.654;2023-02-26T13:34:34;4.80;99.90
26336;DHT22;14047;50.936;4.654;2023-02-26T13:37:02;4.80;99.90
26336;DHT22;14047;50.936;4.654;2023-02-26T13:39:41;4.90;99.90
26336;DHT22;14047;50.936;4.654;2023-02-26T13:42:32;5.20;99.90
26336;DHT22;14047;50.936;4.654;2023-02-26T13:58:44;5.20;99.90
26336;DHT22;14047;50.936;4.654;2023-02-26T14:01:18;5.10;99.90
26336;DHT22;14047;50.936;4.654;2023-02-26T14:09:28;5.00;99.90
26336;DHT22;14047;50.936;4.654;2023-02-26T14:25:33;5.40;99.90
26336;DHT22;14047;50.936;4.654;2023-02-26T14:30:48;5.50;99.90
26336;DHT22;14047;50.936;4.654;2023-02-26T14:33:17;5.60;99.90
26336;DHT22;14047;50.936;4.654;2023-02-26T14:35:46;5.60;99.90
26336;DHT22;14047;50.936;4.654;2023-02-26T14:38:45;5.50;99.90
26336;DHT22;14047;50.936;4.654;2023-02-26T14:43:58;5.40;99.90
26336;DHT22;14047;50.936;4.654;2023-02-26T14:46:25;5.20;99.90
26336;DHT22;14047;50.936;4.654;2023-02-26T14:48:51;4.80;99.90
26336;DHT22;14047;50.936;4.654;2023-02-26T14:51:26;5.00;99.90
26336;DHT22;14047;50.936;4.654;2023-02-26T14:57:08;5.10;99.90
26336;DHT22;14047;50.936;4.654;2023-02-26T15:03:18;5.10;99.90
26336;DHT22;14047;50.936;4.654;2023-02-26T15:25:37;5.40;99.90
26336;DHT22;14047;50.936;4.654;2023-02-26T15:28:05;5.30;99.90
26336;DHT22;14047;50.936;4.654;2023-02-26T15:30:33;5.30;99.90
26336;DHT22;14047;50.936;4.654;2023-02-26T15:33:03;5.20;99.90
26336;DHT22;14047;50.936;4.654;2023-02-26T15:35:30;5.30;99.90
26336;DHT22;14047;50.936;4.654;2023-02-26T15:38:01;5.20;99.90
26336;DHT22;14047;50.936;4.654;2023-02-26T15:40:35;5.20;99.90
26336;DHT22;14047;50.936;4.654;2023-02-26T15:43:06;5.10;99.90
26336;DHT22;14047;50.936;4.654;2023-02-26T15:48:07;5.30;99.90
26336;DHT22;14047;50.936;4.654;2023-02-26T15:50:41;5.20;99.90
26336;DHT22;14047;50.936;4.654;2023-02-26T15:53:12;5.20;99.90
26336;DHT22;14047;50.936;4.654;2023-02-26T15:55:50;5.20;99.90
26336;DHT22;14047;50.936;4.654;2023-02-26T15:58:23;5.30;99.90
26336;DHT22;14047;50.936;4.654;2023-02-26T16:00:54;5.50;99.90
26336;DHT22;14047;50.936;4.654;2023-02-26T16:03:33;5.80;99.90
26336;DHT22;14047;50.936;4.654;2023-02-26T16:06:00;5.90;99.90
26336;DHT22;14047;50.936;4.654;2023-02-26T16:08:26;6.10;99.90
26336;DHT22;14047;50.936;4.654;2023-02-26T16:10:54;6.10;99.90
26336;DHT22;14047;50.936;4.654;2023-02-26T16:13:27;6.40;99.90
26336;DHT22;14047;50.936;4.654;2023-02-26T16:16:01;6.20;99.90
26336;DHT22;14047;50.936;4.654;2023-02-26T16:18:31;6.00;99.90
26336;DHT22;14047;50.936;4.654;2023-02-26T16:20:59;5.90;99.90
26336;DHT22;14047;50.936;4.654;2023-02-26T16:26:05;5.30;99.90
26336;DHT22;14047;50.936;4.654;2023-02-26T16:28:40;5.50;99.90
26336;DHT22;14047;50.936;4.654;2023-02-26T16:31:19;5.80;99.90
26336;DHT22;14047;50.936;4.654;2023-02-26T16:34:21;5.60;99.90
26336;DHT22;14047;50.936;4.654;2023-02-26T16:36:48;5.50;99.90
26336;DHT22;14047;50.936;4.654;2023-02-26T16:39:21;5.40;99.90
26336;DHT22;14047;50.936;4.654;2023-02-26T16:42:15;5.30;99.90
26336;DHT22;14047;50.936;4.654;2023-02-26T16:44:50;5.30;99.90
26336;DHT22;14047;50.936;4.654;2023-02-26T16:47:17;5.20;99.90
26336;DHT22;14047;50.936;4.654;2023-02-26T16:49:44;5.30;99.90
26336;DHT22;14047;50.936;4.654;2023-02-26T16:52:16;5.40;99.90
26336;DHT22;14047;50.936;4.654;2023-02-26T16:54:49;5.30;99.90
26336;DHT22;14047;50.936;4.654;2023-02-26T16:57:21;5.30;99.90
26336;DHT22;14047;50.936;4.654;2023-02-26T16:59:52;5.20;99.90
26336;DHT22;14047;50.936;4.654;2023-02-26T17:02:32;5.30;99.90
26336;DHT22;14047;50.936;4.654;2023-02-26T17:05:06;4.90;99.90
26336;DHT22;14047;50.936;4.654;2023-02-26T17:07:44;4.80;99.90
26336;DHT22;14047;50.936;4.654;2023-02-26T17:10:33;4.50;99.90
26336;DHT22;14047;50.936;4.654;2023-02-26T17:13:13;4.50;99.90
26336;DHT22;14047;50.936;4.654;2023-02-26T17:15:40;4.50;99.90
26336;DHT22;14047;50.936;4.654;2023-02-26T17:18:06;4.30;99.90
26336;DHT22;14047;50.936;4.654;2023-02-26T17:20:33;4.40;99.90
26336;DHT22;14047;50.936;4.654;2023-02-26T17:23:02;4.30;99.90
26336;DHT22;14047;50.936;4.654;2023-02-26T17:25:39;4.30;99.90
26336;DHT22;14047;50.936;4.654;2023-02-26T17:28:07;4.30;99.90
26336;DHT22;14047;50.936;4.654;2023-02-26T17:30:35;4.30;99.90
26336;DHT22;14047;50.936;4.654;2023-02-26T17:33:01;4.20;99.90
26336;DHT22;14047;50.936;4.654;2023-02-26T17:35:29;4.20;99.90
26336;DHT22;14047;50.936;4.654;2023-02-26T17:37:56;4.20;99.90
26336;DHT22;14047;50.936;4.654;2023-02-26T17:40:26;4.20;99.90
26336;DHT22;14047;50.936;4.654;2023-02-26T17:42:52;4.10;99.90
26336;DHT22;14047;50.936;4.654;2023-02-26T17:45:19;4.10;99.90
26336;DHT22;14047;50.936;4.654;2023-02-26T17:47:46;4.10;99.90
26336;DHT22;14047;50.936;4.654;2023-02-26T17:53:09;4.00;99.90
26336;DHT22;14047;50.936;4.654;2023-02-26T17:55:36;4.00;99.90
26336;DHT22;14047;50.936;4.654;2023-02-26T17:58:13;4.20;99.90
26336;DHT22;14047;50.936;4.654;2023-02-26T18:00:39;4.20;99.90
26336;DHT22;14047;50.936;4.654;2023-02-26T18:03:09;4.10;99.90
26336;DHT22;14047;50.936;4.654;2023-02-26T18:05:36;4.00;99.90
26336;DHT22;14047;50.936;4.654;2023-02-26T18:08:05;3.90;99.90
26336;DHT22;14047;50.936;4.654;2023-02-26T18:10:31;3.90;99.90
26336;DHT22;14047;50.936;4.654;2023-02-26T18:12:57;4.00;99.90
26336;DHT22;14047;50.936;4.654;2023-02-26T18:15:25;4.00;99.90
26336;DHT22;14047;50.936;4.654;2023-02-26T18:17:51;4.00;99.90
26336;DHT22;14047;50.936;4.654;2023-02-26T18:20:21;4.10;99.90
26336;DHT22;14047;50.936;4.654;2023-02-26T18:22:48;4.00;99.90
26336;DHT22;14047;50.936;4.654;2023-02-26T18:25:15;3.80;99.90
26336;DHT22;14047;50.936;4.654;2023-02-26T18:27:43;3.70;99.90
26336;DHT22;14047;50.936;4.654;2023-02-26T18:30:21;3.80;99.90
26336;DHT22;14047;50.936;4.654;2023-02-26T18:32:48;3.80;99.90
26336;DHT22;14047;50.936;4.654;2023-02-26T18:35:14;3.80;99.90
26336;DHT22;14047;50.936;4.654;2023-02-26T18:37:44;3.80;99.90
26336;DHT22;14047;50.936;4.654;2023-02-26T18:40:17;3.60;99.90
26336;DHT22;14047;50.936;4.654;2023-02-26T18:42:44;3.40;99.90
26336;DHT22;14047;50.936;4.654;2023-02-26T18:45:10;3.40;99.90
26336;DHT22;14047;50.936;4.654;2023-02-26T18:47:37;3.30;99.90
26336;DHT22;14047;50.936;4.654;2023-02-26T18:50:04;3.40;99.90
26336;DHT22;14047;50.936;4.654;2023-02-26T18:52:31;3.40;99.90
26336;DHT22;14047;50.936;4.654;2023-02-26T18:54:57;3.30;99.90
26336;DHT22;14047;50.936;4.654;2023-02-26T18:57:24;3.40;99.90
26336;DHT22;14047;50.936;4.654;2023-02-26T18:59:50;3.40;99.90
26336;DHT22;14047;50.936;4.654;2023-02-26T19:02:16;3.20;99.90
26336;DHT22;14047;50.936;4.654;2023-02-26T19:04:42;3.20;99.90
26336;DHT22;14047;50.936;4.654;2023-02-26T19:07:08;3.20;99.90
26336;DHT22;14047;50.936;4.654;2023-02-26T19:09:34;3.20;99.90